createdAt,value
2023-05-08T00:02:10.703Z,102270.41
2023-05-08T00:04:37.137Z,102275.75
2023-05-08T00:07:03.719Z,102269.66
2023-05-08T00:09:30.395Z,102274.41
2023-05-08T00:11:56.952Z,102237.47
2023-05-08T00:14:23.388Z,102219.00
2023-05-08T00:16:49.855Z,102274.16
2023-05-08T00:19:16.574Z,102232.63
2023-05-08T00:21:43.162Z,102275.47
2023-05-08T00:24:09.603Z,102261.09
2023-05-08T00:26:36.004Z,102269.63
2023-05-08T00:29:03.680Z,102270.84
2023-05-08T00:31:30.945Z,102276.06
2023-05-08T00:33:57.338Z,102271.41
2023-05-08T00:36:23.757Z,102266.22
2023-05-08T00:38:50.149Z,102273.50
2023-05-08T00:41:16.635Z,102266.88
2023-05-08T00:43:43.513Z,102259.47
2023-05-08T00:46:10.212Z,102258.22
2023-05-08T00:48:37.857Z,102267.94
2023-05-08T00:51:08.183Z,102277.03
2023-05-08T00:53:38.524Z,102270.16
2023-05-08T00:56:05.751Z,102279.16
2023-05-08T00:58:32.792Z,102278.38
2023-05-08T01:01:00.736Z,102277.84
2023-05-08T01:03:28.631Z,102278.09
2023-05-08T01:05:55.160Z,102271.03
2023-05-08T01:08:22.137Z,102273.06
2023-05-08T01:10:48.576Z,102277.56
2023-05-08T01:13:31.731Z,102276.75
2023-05-08T01:16:09.634Z,102272.44
2023-05-08T01:18:45.796Z,102284.22
2023-05-08T01:21:32.251Z,102275.66
2023-05-08T01:24:39.155Z,102282.50
2023-05-08T01:27:23.434Z,102283.56
2023-05-08T01:30:05.875Z,102285.63
2023-05-08T01:32:39.025Z,102275.50
2023-05-08T01:35:23.976Z,102275.50
2023-05-08T01:38:00.698Z,102231.69
2023-05-08T01:40:36.219Z,102272.53
2023-05-08T01:43:26.498Z,102271.78
2023-05-08T01:45:55.718Z,102268.63
2023-05-08T01:48:32.596Z,102275.88
2023-05-08T01:51:05.301Z,102270.88
2023-05-08T01:53:39.296Z,102275.72
2023-05-08T01:56:11.991Z,102280.41
2023-05-08T01:58:39.917Z,102210.97
2023-05-08T02:01:07.925Z,102286.66
2023-05-08T02:03:35.622Z,102290.19
2023-05-08T02:06:02.681Z,102281.72
2023-05-08T02:08:33.694Z,102291.47
2023-05-08T02:11:01.841Z,102280.59
2023-05-08T02:13:30.145Z,102279.59
2023-05-08T02:15:58.201Z,102281.75
2023-05-08T02:18:26.066Z,102291.50
2023-05-08T02:20:54.168Z,102223.03
2023-05-08T02:23:23.334Z,102288.16
2023-05-08T02:25:51.143Z,102288.50
2023-05-08T02:28:18.713Z,102300.22
2023-05-08T02:30:46.964Z,102284.44
2023-05-08T02:33:15.936Z,102290.00
2023-05-08T02:35:44.438Z,102291.91
2023-05-08T02:38:13.072Z,102283.16
2023-05-08T02:40:47.460Z,102280.59
2023-05-08T02:43:14.120Z,102283.38
2023-05-08T02:45:49.730Z,102279.00
2023-05-08T02:48:33.408Z,102282.63
2023-05-08T02:51:21.538Z,102240.69
2023-05-08T02:53:54.527Z,102274.63
2023-05-08T02:56:36.049Z,102284.22
2023-05-08T02:59:20.316Z,102273.16
2023-05-08T03:01:54.094Z,102218.75
2023-05-08T03:04:29.138Z,102283.59
2023-05-08T03:06:58.265Z,102284.22
2023-05-08T03:09:27.922Z,102268.81
2023-05-08T03:12:02.346Z,102274.16
2023-05-08T03:14:32.139Z,102275.47
2023-05-08T03:17:01.099Z,102244.97
2023-05-08T03:19:34.046Z,102273.47
2023-05-08T03:22:02.722Z,102270.28
2023-05-08T03:24:31.340Z,102264.47
2023-05-08T03:26:59.217Z,102262.44
2023-05-08T03:29:27.070Z,102272.25
2023-05-08T03:31:54.688Z,102261.56
2023-05-08T03:34:23.167Z,102183.22
2023-05-08T03:36:50.903Z,102271.25
2023-05-08T03:39:17.609Z,102244.78
2023-05-08T03:41:44.162Z,102275.09
2023-05-08T03:44:11.602Z,102264.81
2023-05-08T03:46:38.857Z,102229.03
2023-05-08T03:49:08.605Z,102270.13
2023-05-08T03:51:38.692Z,102272.81
2023-05-08T03:54:05.176Z,102271.94
2023-05-08T03:56:31.698Z,102272.16
2023-05-08T03:59:14.267Z,102256.22
2023-05-08T04:01:54.092Z,102279.19
2023-05-08T04:04:33.833Z,102257.81
2023-05-08T04:07:09.466Z,102273.13
2023-05-08T04:09:44.254Z,102253.53
2023-05-08T04:12:19.935Z,102265.22
2023-05-08T04:15:07.628Z,102266.81
2023-05-08T04:17:40.181Z,102267.81
2023-05-08T04:20:09.024Z,102241.31
2023-05-08T04:22:37.051Z,102253.25
2023-05-08T04:25:07.920Z,102264.91
2023-05-08T04:27:35.645Z,102259.47
2023-05-08T04:30:02.642Z,102265.47
2023-05-08T04:32:30.457Z,102269.66
2023-05-08T04:34:57.044Z,102252.91
2023-05-08T04:37:28.378Z,102260.38
2023-05-08T04:39:55.262Z,102254.94
2023-05-08T04:42:21.845Z,102258.06
2023-05-08T04:44:48.345Z,102253.59
2023-05-08T04:47:14.950Z,102266.38
2023-05-08T04:49:41.680Z,102254.88
2023-05-08T04:52:08.281Z,102249.78
2023-05-08T04:54:35.226Z,102256.84
2023-05-08T04:57:01.840Z,102265.81
2023-05-08T04:59:29.444Z,102255.34
2023-05-08T05:01:57.197Z,102269.59
2023-05-08T05:04:23.641Z,102267.66
2023-05-08T05:06:50.084Z,102266.41
2023-05-08T05:09:16.625Z,102261.72
2023-05-08T05:11:43.066Z,102266.81
2023-05-08T05:14:09.461Z,102270.13
2023-05-08T05:16:35.892Z,102270.59
2023-05-08T05:19:02.538Z,102269.16
2023-05-08T05:21:29.089Z,102271.63
2023-05-08T05:23:55.589Z,102269.06
2023-05-08T05:26:22.164Z,102258.69
2023-05-08T05:28:48.882Z,102291.16
2023-05-08T05:31:15.444Z,102279.31
2023-05-08T05:33:42.458Z,102257.03
2023-05-08T05:36:09.099Z,102284.22
2023-05-08T05:38:35.475Z,102284.22
2023-05-08T05:41:02.039Z,102292.41
2023-05-08T05:43:28.489Z,102281.38
2023-05-08T05:45:56.110Z,102284.94
2023-05-08T05:48:22.528Z,102257.22
2023-05-08T05:50:48.956Z,102242.69
2023-05-08T05:53:15.808Z,102282.88
2023-05-08T05:55:42.352Z,102285.19
2023-05-08T05:58:08.973Z,102290.31
2023-05-08T06:00:35.437Z,102282.16
2023-05-08T06:03:02.966Z,102290.97
2023-05-08T06:05:29.915Z,102284.09
2023-05-08T06:07:57.169Z,102300.69
2023-05-08T06:10:24.015Z,102271.91
2023-05-08T06:12:50.522Z,102280.59
2023-05-08T06:15:17.023Z,102298.16
2023-05-08T06:17:46.146Z,102289.66
2023-05-08T06:20:12.680Z,102296.47
2023-05-08T06:22:40.913Z,102260.31
2023-05-08T06:25:08.519Z,102294.16
2023-05-08T06:27:35.661Z,102286.59
2023-05-08T06:30:02.479Z,102295.88
2023-05-08T06:32:29.199Z,102258.47
2023-05-08T06:34:55.831Z,102251.41
2023-05-08T06:37:22.748Z,102242.06
2023-05-08T06:39:54.585Z,102298.56
2023-05-08T06:42:27.292Z,102263.97
2023-05-08T06:44:53.803Z,102294.63
2023-05-08T06:47:20.612Z,102284.88
2023-05-08T06:49:47.064Z,102272.56
2023-05-08T06:52:13.500Z,102270.38
2023-05-08T06:54:41.304Z,102244.53
2023-05-08T06:57:08.817Z,102280.31
2023-05-08T06:59:35.349Z,102277.63
2023-05-08T07:02:01.817Z,102283.84
2023-05-08T07:04:30.143Z,102288.97
2023-05-08T07:06:57.859Z,102279.66
2023-05-08T07:09:24.246Z,102290.16
2023-05-08T07:11:50.666Z,102293.13
2023-05-08T07:14:17.322Z,102296.38
2023-05-08T07:16:43.947Z,102293.25
2023-05-08T07:19:10.798Z,102280.16
2023-05-08T07:21:38.625Z,102282.28
2023-05-08T07:24:05.375Z,102295.88
2023-05-08T07:26:31.807Z,102278.09
2023-05-08T07:28:58.482Z,102225.19
2023-05-08T07:31:25.034Z,102283.84
2023-05-08T07:33:51.656Z,102246.28
2023-05-08T07:36:18.189Z,102249.50
2023-05-08T07:38:44.653Z,102277.44
2023-05-08T07:41:11.264Z,102275.06
2023-05-08T07:43:37.960Z,102269.84
2023-05-08T07:46:05.515Z,102278.66
2023-05-08T07:48:31.961Z,102275.69
2023-05-08T07:50:58.416Z,102255.16
2023-05-08T07:53:24.878Z,102262.91
2023-05-08T07:55:51.381Z,102266.16
2023-05-08T07:58:20.475Z,102217.00
2023-05-08T08:00:48.070Z,102254.69
2023-05-08T08:03:14.530Z,102254.53
2023-05-08T08:05:41.949Z,102242.88
2023-05-08T08:08:08.426Z,102257.59
2023-05-08T08:10:34.952Z,102243.84
2023-05-08T08:13:04.827Z,102251.31
2023-05-08T08:15:31.419Z,102242.66
2023-05-08T08:17:57.881Z,102219.38
2023-05-08T08:20:24.376Z,102228.44
2023-05-08T08:22:50.972Z,102185.22
2023-05-08T08:25:17.858Z,102251.94
2023-05-08T08:27:44.284Z,102248.78
2023-05-08T08:30:17.715Z,102252.59
2023-05-08T08:32:45.209Z,102239.69
2023-05-08T08:35:12.094Z,102211.84
2023-05-08T08:37:38.865Z,102226.69
2023-05-08T08:40:06.396Z,102228.09
2023-05-08T08:42:32.863Z,102221.13
2023-05-08T08:45:00.420Z,102238.34
2023-05-08T08:47:29.770Z,102228.34
2023-05-08T08:50:00.486Z,102238.19
2023-05-08T08:52:55.644Z,102234.72
2023-05-08T08:55:23.691Z,102244.75
2023-05-08T08:58:11.525Z,102245.81
2023-05-08T09:00:38.688Z,102245.13
2023-05-08T09:03:09.367Z,102232.00
2023-05-08T09:05:36.688Z,102259.19
2023-05-08T09:08:03.302Z,102239.03
2023-05-08T09:10:30.059Z,102252.00
2023-05-08T09:12:56.715Z,102247.81
2023-05-08T09:15:23.278Z,102245.97
2023-05-08T09:17:49.900Z,102216.25
2023-05-08T09:20:16.745Z,102252.34
2023-05-08T09:22:43.632Z,102255.41
2023-05-08T09:25:10.910Z,102254.97
2023-05-08T09:27:37.500Z,102247.56
2023-05-08T09:30:09.040Z,102253.09
2023-05-08T09:32:38.139Z,102249.00
2023-05-08T09:35:06.538Z,102245.88
2023-05-08T09:37:33.924Z,102206.63
2023-05-08T09:40:21.964Z,102240.81
2023-05-08T09:42:50.191Z,102247.00
2023-05-08T09:45:35.337Z,102232.88
2023-05-08T09:48:02.199Z,102233.72
2023-05-08T09:50:31.779Z,102198.19
2023-05-08T09:52:58.305Z,102223.44
2023-05-08T09:55:24.955Z,102217.63
2023-05-08T09:57:54.535Z,102193.00
2023-05-08T10:00:21.702Z,102231.84
2023-05-08T10:03:14.260Z,102221.69
2023-05-08T10:05:40.790Z,102218.16
2023-05-08T10:08:23.727Z,102228.13
2023-05-08T10:10:50.662Z,102205.22
2023-05-08T10:13:17.223Z,102207.28
2023-05-08T10:15:45.835Z,102224.72
2023-05-08T10:18:15.960Z,102216.59
2023-05-08T10:20:45.172Z,102220.25
2023-05-08T10:23:18.393Z,102223.97
2023-05-08T10:25:54.727Z,102218.78
2023-05-08T10:28:44.285Z,102216.75
2023-05-08T10:31:14.322Z,102161.22
2023-05-08T10:33:41.548Z,102199.72
2023-05-08T10:36:09.984Z,102155.28
2023-05-08T10:38:37.941Z,102208.88
2023-05-08T10:41:05.499Z,102201.22
2023-05-08T10:43:32.780Z,102203.13
2023-05-08T10:46:09.330Z,102177.78
2023-05-08T10:48:56.615Z,102196.34
2023-05-08T10:51:46.434Z,102188.69
2023-05-08T10:54:30.753Z,102184.25
2023-05-08T10:57:12.876Z,102182.88
2023-05-08T10:59:45.276Z,102171.28
2023-05-08T11:02:12.105Z,102165.16
2023-05-08T11:04:38.772Z,102142.72
2023-05-08T11:07:05.481Z,102177.97
2023-05-08T11:09:40.937Z,102177.53
2023-05-08T11:12:16.526Z,102157.56
2023-05-08T11:14:47.958Z,102174.66
2023-05-08T11:17:23.786Z,102145.91
2023-05-08T11:20:04.457Z,102172.69
2023-05-08T11:22:34.921Z,102128.72
2023-05-08T11:25:10.880Z,102164.19
2023-05-08T11:27:49.177Z,102158.75
2023-05-08T11:30:35.167Z,102160.66
2023-05-08T11:33:04.676Z,102154.78
2023-05-08T11:35:41.782Z,102157.38
2023-05-08T11:38:18.541Z,102166.91
2023-05-08T11:40:46.185Z,102150.94
2023-05-08T11:43:31.488Z,102141.13
2023-05-08T11:46:05.819Z,102155.25
2023-05-08T11:48:33.104Z,102142.22
2023-05-08T11:51:00.582Z,102141.16
2023-05-08T11:53:27.669Z,102153.59
2023-05-08T11:55:54.496Z,102155.50
2023-05-08T11:58:21.625Z,102128.34
2023-05-08T12:00:49.456Z,102150.00
2023-05-08T12:03:21.436Z,102147.69
2023-05-08T12:05:49.784Z,102129.50
2023-05-08T12:08:18.373Z,102149.59
2023-05-08T12:10:52.559Z,102145.25
2023-05-08T12:13:29.737Z,102140.59
2023-05-08T12:15:59.047Z,102114.16
2023-05-08T12:18:27.633Z,102145.72
2023-05-08T12:20:57.345Z,102142.25
2023-05-08T12:23:26.096Z,102146.69
2023-05-08T12:25:55.423Z,102115.34
2023-05-08T12:28:22.324Z,102131.81
2023-05-08T12:30:49.912Z,102140.25
2023-05-08T12:33:17.324Z,102108.41
2023-05-08T12:35:44.126Z,102132.69
2023-05-08T12:38:11.935Z,102143.25
2023-05-08T12:40:47.613Z,102142.09
2023-05-08T12:43:14.131Z,102124.03
2023-05-08T12:45:43.162Z,102119.13
2023-05-08T12:48:12.848Z,102140.00
2023-05-08T12:50:44.506Z,102143.63
2023-05-08T12:53:15.965Z,102136.22
2023-05-08T12:56:11.814Z,102132.78
2023-05-08T12:58:38.325Z,102074.59
2023-05-08T13:01:07.393Z,102121.88
2023-05-08T13:03:34.240Z,102096.84
2023-05-08T13:06:01.013Z,102119.56
2023-05-08T13:08:32.162Z,102113.25
2023-05-08T13:10:59.187Z,102109.06
2023-05-08T13:13:28.250Z,102110.31
2023-05-08T13:15:56.060Z,102086.78
2023-05-08T13:18:26.740Z,102080.69
2023-05-08T13:20:54.656Z,102124.41
2023-05-08T13:23:21.140Z,102054.81
2023-05-08T13:25:47.824Z,102093.47
2023-05-08T13:28:14.442Z,102111.06
2023-05-08T13:30:40.936Z,102093.78
2023-05-08T13:33:07.808Z,102093.34
2023-05-08T13:35:35.237Z,102091.78
2023-05-08T13:38:02.117Z,102082.72
2023-05-08T13:40:28.669Z,102028.75
2023-05-08T13:42:55.281Z,102069.34
2023-05-08T13:45:21.979Z,102089.34
2023-05-08T13:47:49.727Z,102087.03
2023-05-08T13:50:18.360Z,102083.66
2023-05-08T13:52:47.867Z,102078.00
2023-05-08T13:55:14.549Z,102083.03
2023-05-08T13:57:41.579Z,102071.69
2023-05-08T14:00:09.604Z,102046.25
2023-05-08T14:02:37.623Z,102046.63
2023-05-08T14:05:05.306Z,102016.81
2023-05-08T14:07:31.850Z,102065.34
2023-05-08T14:09:58.398Z,102062.97
2023-05-08T14:12:24.818Z,102053.50
2023-05-08T14:14:51.253Z,102043.00
2023-05-08T14:17:18.718Z,102032.28
2023-05-08T14:19:46.178Z,102035.22
2023-05-08T14:22:12.660Z,102055.25
2023-05-08T14:24:39.541Z,102045.19
2023-05-08T14:27:06.226Z,102044.97
2023-05-08T14:29:33.764Z,102044.34
2023-05-08T14:32:00.466Z,102017.25
2023-05-08T14:34:26.952Z,102042.66
2023-05-08T14:36:53.385Z,101990.16
2023-05-08T14:39:20.123Z,102029.22
2023-05-08T14:42:05.289Z,102035.75
2023-05-08T14:44:33.287Z,102012.84
2023-05-08T14:47:00.167Z,102018.28
2023-05-08T14:49:36.575Z,102015.56
2023-05-08T14:52:04.759Z,102016.41
2023-05-08T14:54:31.784Z,102010.75
2023-05-08T14:56:58.528Z,102002.09
2023-05-08T14:59:24.927Z,101987.19
2023-05-08T15:01:51.433Z,101992.25
2023-05-08T15:04:18.233Z,101999.38
2023-05-08T15:06:44.775Z,102012.41
2023-05-08T15:09:11.380Z,101989.28
2023-05-08T15:11:38.089Z,101994.53
2023-05-08T15:14:05.125Z,101994.34
2023-05-08T15:16:31.751Z,101990.97
2023-05-08T15:18:58.297Z,101987.81
2023-05-08T15:21:26.820Z,101989.91
2023-05-08T15:23:56.064Z,101987.16
2023-05-08T15:26:22.997Z,101977.06
2023-05-08T15:28:52.418Z,101982.94
2023-05-08T15:31:18.884Z,101976.66
2023-05-08T15:33:48.691Z,101979.16
2023-05-08T15:36:15.432Z,101983.78
2023-05-08T15:38:42.806Z,101969.28
2023-05-08T15:41:15.194Z,101953.13
2023-05-08T15:43:44.422Z,101955.03
2023-05-08T15:46:11.003Z,101967.84
2023-05-08T15:48:37.449Z,101935.06
2023-05-08T15:51:03.912Z,101978.53
2023-05-08T15:53:30.624Z,101953.94
2023-05-08T15:55:57.426Z,101916.75
2023-05-08T15:58:24.191Z,101962.56
2023-05-08T16:00:50.718Z,101943.63
2023-05-08T16:03:17.340Z,101964.44
2023-05-08T16:05:44.008Z,101957.72
2023-05-08T16:08:12.673Z,101960.19
2023-05-08T16:10:40.497Z,101970.47
2023-05-08T16:13:07.178Z,101946.50
2023-05-08T16:15:33.701Z,101952.75
2023-05-08T16:18:03.613Z,101960.94
2023-05-08T16:20:30.590Z,101964.00
2023-05-08T16:22:58.286Z,101957.53
2023-05-08T16:25:25.708Z,101919.53
2023-05-08T16:27:55.531Z,101951.22
2023-05-08T16:30:22.034Z,101950.56
2023-05-08T16:32:48.502Z,101950.78
2023-05-08T16:35:15.581Z,101946.16
2023-05-08T16:37:42.398Z,101944.47
2023-05-08T16:40:09.889Z,101941.94
2023-05-08T16:42:36.960Z,101940.28
2023-05-08T16:45:07.755Z,101910.03
2023-05-08T16:47:34.922Z,101930.59
2023-05-08T16:50:01.513Z,101921.13
2023-05-08T16:52:28.019Z,101929.13
2023-05-08T16:54:54.557Z,101938.22
2023-05-08T16:57:21.058Z,101927.31
2023-05-08T16:59:47.487Z,101939.09
2023-05-08T17:02:18.545Z,101944.38
2023-05-08T17:04:47.029Z,101940.78
2023-05-08T17:07:17.333Z,101933.25
2023-05-08T17:09:44.180Z,101874.47
2023-05-08T17:12:10.669Z,101932.00
2023-05-08T17:14:39.281Z,101931.38
2023-05-08T17:17:06.340Z,101903.50
2023-05-08T17:19:32.816Z,101919.03
2023-05-08T17:21:59.974Z,101935.00
2023-05-08T17:24:27.191Z,101920.28
2023-05-08T17:26:53.722Z,101932.09
2023-05-08T17:29:20.290Z,101915.13
2023-05-08T17:31:46.894Z,101913.22
2023-05-08T17:34:13.494Z,101932.56
2023-05-08T17:36:40.020Z,101906.94
2023-05-08T17:39:06.402Z,101886.13
2023-05-08T17:41:32.905Z,101922.69
2023-05-08T17:43:59.389Z,101891.59
2023-05-08T17:46:25.961Z,101933.59
2023-05-08T17:48:52.458Z,101934.00
2023-05-08T17:51:22.000Z,101933.38
2023-05-08T17:53:48.498Z,101930.00
2023-05-08T17:56:20.207Z,101907.50
2023-05-08T17:58:47.011Z,101924.22
2023-05-08T18:01:13.552Z,101933.66
2023-05-08T18:03:40.443Z,101903.91
2023-05-08T18:06:07.077Z,101928.66
2023-05-08T18:08:34.822Z,101938.25
2023-05-08T18:11:01.303Z,101942.78
2023-05-08T18:13:31.410Z,101951.44
2023-05-08T18:16:00.596Z,101946.47
2023-05-08T18:18:27.425Z,101927.25
2023-05-08T18:20:53.852Z,101943.00
2023-05-08T18:23:22.077Z,101946.41
2023-05-08T18:25:53.682Z,101940.38
2023-05-08T18:28:20.210Z,101938.50
2023-05-08T18:30:46.587Z,101946.88
2023-05-08T18:33:13.599Z,101940.69
2023-05-08T18:35:40.096Z,101920.84
2023-05-08T18:38:06.585Z,101952.72
2023-05-08T18:40:33.060Z,101952.41
2023-05-08T18:42:59.571Z,101962.25
2023-05-08T18:45:26.010Z,101960.09
2023-05-08T18:47:54.129Z,101956.50
2023-05-08T18:50:20.644Z,101957.63
2023-05-08T18:52:47.078Z,101957.19
2023-05-08T18:55:13.469Z,101963.53
2023-05-08T18:57:39.861Z,101955.13
2023-05-08T19:00:06.906Z,101951.47
2023-05-08T19:02:33.394Z,101954.75
2023-05-08T19:05:00.672Z,101971.84
2023-05-08T19:07:27.147Z,101964.44
2023-05-08T19:09:55.461Z,101965.97
2023-05-08T19:12:21.829Z,101969.72
2023-05-08T19:14:50.195Z,101973.59
2023-05-08T19:17:16.718Z,101977.69
2023-05-08T19:19:43.267Z,101954.34
2023-05-08T19:22:09.960Z,101964.69
2023-05-08T19:24:36.453Z,101900.06
2023-05-08T19:27:02.895Z,101910.72
2023-05-08T19:29:29.422Z,101974.09
2023-05-08T19:31:56.637Z,101986.59
2023-05-08T19:34:23.890Z,101977.94
2023-05-08T19:36:51.231Z,101982.66
2023-05-08T19:39:17.906Z,101961.81
2023-05-08T19:41:47.807Z,101975.53
2023-05-08T19:44:14.269Z,101979.59
2023-05-08T19:46:40.714Z,101975.00
2023-05-08T19:49:07.411Z,101973.81
2023-05-08T19:51:33.861Z,101978.53
2023-05-08T19:54:00.431Z,101976.16
2023-05-08T19:56:26.804Z,101972.94
2023-05-08T19:58:53.213Z,101972.75
2023-05-08T20:01:19.772Z,101977.78
2023-05-08T20:03:46.305Z,101916.50
2023-05-08T20:06:12.738Z,101953.34
2023-05-08T20:08:39.164Z,101946.38
2023-05-08T20:11:07.710Z,101956.03
2023-05-08T20:13:34.100Z,101939.53
2023-05-08T20:16:00.581Z,101973.00
2023-05-08T20:18:27.063Z,101936.38
2023-05-08T20:20:53.490Z,101965.47
2023-05-08T20:23:19.980Z,101968.28
2023-05-08T20:25:47.978Z,101928.44
2023-05-08T20:28:15.506Z,101962.94
2023-05-08T20:30:42.043Z,101943.31
2023-05-08T20:33:08.596Z,101968.34
2023-05-08T20:35:36.062Z,101963.91
2023-05-08T20:38:02.803Z,101907.91
2023-05-08T20:40:29.269Z,101952.06
2023-05-08T20:42:58.248Z,101956.59
2023-05-08T20:45:24.851Z,101961.88
2023-05-08T20:47:51.367Z,101955.72
2023-05-08T20:50:17.973Z,101961.09
2023-05-08T20:52:45.505Z,101960.16
2023-05-08T20:55:12.134Z,101964.69
2023-05-08T20:57:39.117Z,101957.94
2023-05-08T21:00:06.443Z,101950.28
2023-05-08T21:02:33.828Z,101936.56
2023-05-08T21:05:00.732Z,101922.78
2023-05-08T21:07:27.237Z,101944.66
2023-05-08T21:09:53.631Z,101943.50
2023-05-08T21:12:20.035Z,101911.34
2023-05-08T21:14:46.540Z,101947.34
2023-05-08T21:17:12.969Z,101939.28
2023-05-08T21:19:39.714Z,101913.72
2023-05-08T21:22:07.507Z,101930.13
2023-05-08T21:24:34.293Z,101924.44
2023-05-08T21:27:00.781Z,101906.81
2023-05-08T21:29:27.222Z,101928.56
2023-05-08T21:31:53.762Z,101931.53
2023-05-08T21:34:22.819Z,101927.28
2023-05-08T21:36:49.360Z,101923.88
2023-05-08T21:39:15.805Z,101909.94
2023-05-08T21:41:43.249Z,101934.94
2023-05-08T21:44:12.964Z,101936.78
2023-05-08T21:46:41.970Z,101914.63
2023-05-08T21:49:08.417Z,101919.09
2023-05-08T21:51:35.176Z,101925.81
2023-05-08T21:54:01.787Z,101895.84
2023-05-08T21:56:28.201Z,101936.72
2023-05-08T21:58:55.527Z,101915.63
2023-05-08T22:01:22.054Z,101903.31
2023-05-08T22:03:48.634Z,101907.84
2023-05-08T22:06:15.330Z,101904.31
2023-05-08T22:08:41.984Z,101892.47
2023-05-08T22:11:08.377Z,101902.75
2023-05-08T22:13:34.824Z,101891.47
2023-05-08T22:16:01.443Z,101884.97
2023-05-08T22:18:27.914Z,101895.66
2023-05-08T22:20:55.124Z,101907.28
2023-05-08T22:23:21.591Z,101877.03
2023-05-08T22:25:48.094Z,101862.66
2023-05-08T22:28:14.495Z,101896.00
2023-05-08T22:30:40.971Z,101886.09
2023-05-08T22:33:07.533Z,101891.47
2023-05-08T22:35:34.452Z,101877.59
2023-05-08T22:38:00.993Z,101870.81
2023-05-08T22:40:28.536Z,101881.59
2023-05-08T22:42:56.354Z,101870.44
2023-05-08T22:45:23.193Z,101852.78
2023-05-08T22:47:49.721Z,101883.56
2023-05-08T22:50:16.962Z,101869.19
2023-05-08T22:52:43.428Z,101838.94
2023-05-08T22:55:09.947Z,101854.22
2023-05-08T22:57:36.456Z,101874.00
2023-05-08T23:00:03.456Z,101875.16
2023-05-08T23:02:34.108Z,101870.09
2023-05-08T23:05:01.886Z,101870.25
2023-05-08T23:07:28.830Z,101863.28
2023-05-08T23:09:55.312Z,101823.31
2023-05-08T23:12:21.884Z,101850.84
2023-05-08T23:14:48.252Z,101850.31
2023-05-08T23:17:14.744Z,101854.38
2023-05-08T23:19:42.442Z,101855.84
2023-05-08T23:22:09.537Z,101847.22
2023-05-08T23:24:36.728Z,101857.84
2023-05-08T23:27:03.382Z,101836.81
2023-05-08T23:29:30.196Z,101859.13
2023-05-08T23:31:56.665Z,101850.09
2023-05-08T23:34:23.377Z,101828.22
2023-05-08T23:36:49.854Z,101862.28
2023-05-08T23:39:16.477Z,101838.28
2023-05-08T23:41:42.938Z,101842.81
2023-05-08T23:44:10.336Z,101846.75
2023-05-08T23:46:36.772Z,101851.72
2023-05-08T23:49:05.428Z,101820.97
2023-05-08T23:51:32.966Z,101852.56
2023-05-08T23:53:59.510Z,101824.91
2023-05-08T23:56:26.842Z,101839.03
2023-05-08T23:58:53.306Z,101844.53
